Time;durP1;ratioP1;P1;durP2;ratioP2;P2;SDS_P1;SDS_P2;PMS_P1;PMS_P2;Temp;Humidity;BMP_temperature;BMP_pressure;BME280_temperature;BME280_humidity;BME280_pressure;Samples;Min_cycle;Max_cycle;Signal;HPM_P1;HPM_P2
2022/09/27 00:00:36;;;;;;;8.50;3.25;;;10.10;99.90;;;;;;4932918;29;20214;-74
2022/09/27 00:03:02;;;;;;;5.73;4.07;;;10.10;99.90;;;;;;4938960;29;20204;-74
2022/09/27 00:05:28;;;;;;;4.87;3.00;;;10.10;99.90;;;;;;4956006;29;20231;-74
2022/09/27 00:07:55;;;;;;;4.95;3.33;;;10.10;99.90;;;;;;4956193;29;20201;-74
2022/09/27 00:10:20;;;;;;;6.97;3.05;;;10.00;99.90;;;;;;4953156;28;20193;-74
2022/09/27 00:12:47;;;;;;;4.07;3.50;;;10.00;99.90;;;;;;4935788;29;20223;-74
2022/09/27 00:15:13;;;;;;;6.00;4.10;;;10.00;99.90;;;;;;4935835;29;20272;-74
2022/09/27 00:17:40;;;;;;;8.20;3.78;;;10.00;99.90;;;;;;4937346;29;20197;-75
2022/09/27 00:20:06;;;;;;;7.80;4.82;;;10.00;99.90;;;;;;4937216;29;20221;-76
2022/09/27 00:22:35;;;;;;;7.13;4.32;;;10.00;99.90;;;;;;4956046;29;20195;-74
2022/09/27 00:25:04;;;;;;;7.90;4.95;;;10.00;99.90;;;;;;4955794;29;20661;-74
2022/09/27 00:27:30;;;;;;;6.03;4.13;;;10.00;99.90;;;;;;4956069;29;20204;-75
2022/09/27 00:29:56;;;;;;;7.32;3.65;;;10.00;99.90;;;;;;4956219;29;20184;-75
2022/09/27 00:32:22;;;;;;;5.17;4.00;;;9.90;99.90;;;;;;4938847;29;20226;-74
2022/09/27 00:34:47;;;;;;;4.00;3.10;;;9.90;99.90;;;;;;4936766;29;20186;-74
2022/09/27 00:37:13;;;;;;;2.50;2.30;;;9.90;99.90;;;;;;4936725;29;20291;-74
2022/09/27 00:39:38;;;;;;;5.00;2.30;;;9.90;99.90;;;;;;4936763;29;20181;-74
2022/09/27 00:42:08;;;;;;;3.63;1.70;;;9.80;99.90;;;;;;4937611;29;20197;-74
2022/09/27 00:44:37;;;;;;;2.08;1.83;;;9.80;99.90;;;;;;4936262;29;20193;-74
2022/09/27 00:47:21;;;;;;;3.65;1.73;;;9.80;99.90;;;;;;4936626;29;20193;-74
2022/09/27 00:50:09;;;;;;;3.80;1.55;;;9.80;99.90;;;;;;4936386;29;20232;-74
2022/09/27 00:52:47;;;;;;;6.22;2.42;;;9.80;99.90;;;;;;4936296;29;20670;-74
2022/09/27 00:55:21;;;;;;;3.50;1.70;;;9.70;99.90;;;;;;4933248;29;20696;-75
2022/09/27 00:57:47;;;;;;;6.13;1.40;;;9.70;99.90;;;;;;4936362;29;20256;-75
2022/09/27 01:00:14;;;;;;;4.50;2.50;;;9.70;99.90;;;;;;4936181;29;20681;-75
2022/09/27 01:02:44;;;;;;;3.17;1.63;;;9.70;99.90;;;;;;4936227;29;20189;-75
2022/09/27 01:05:12;;;;;;;7.10;1.83;;;9.70;99.90;;;;;;4935620;29;20185;-75
2022/09/27 01:07:38;;;;;;;2.30;1.27;;;9.70;99.90;;;;;;4936104;29;20228;-75
2022/09/27 01:10:05;;;;;;;2.53;1.73;;;9.70;99.90;;;;;;4935846;29;20182;-75
2022/09/27 01:12:42;;;;;;;3.90;2.10;;;9.70;99.90;;;;;;4935740;29;20205;-74
2022/09/27 01:15:39;;;;;;;5.90;2.70;;;9.70;99.90;;;;;;4935799;29;20184;-74
2022/09/27 01:18:19;;;;;;;3.80;2.03;;;9.70;99.90;;;;;;4936016;29;20201;-76
2022/09/27 01:21:03;;;;;;;4.40;1.90;;;9.70;99.90;;;;;;4936023;29;20177;-75
2022/09/27 01:23:47;;;;;;;5.15;3.10;;;9.80;99.90;;;;;;4935716;29;20204;-75
2022/09/27 01:26:36;;;;;;;6.57;3.33;;;9.70;99.90;;;;;;4936055;29;20193;-75
2022/09/27 01:29:35;;;;;;;4.40;2.58;;;9.70;99.90;;;;;;4935748;29;20186;-75
2022/09/27 01:32:16;;;;;;;3.83;2.78;;;9.70;99.90;;;;;;4905349;29;20232;-75
2022/09/27 01:35:05;;;;;;;2.55;2.35;;;9.70;99.90;;;;;;4915431;29;20190;-75
2022/09/27 01:37:56;;;;;;;9.43;3.63;;;9.70;99.90;;;;;;4915587;29;20667;-74
2022/09/27 01:40:27;;;;;;;3.58;2.65;;;9.70;99.90;;;;;;4927192;29;20173;-74
2022/09/27 01:43:17;;;;;;;3.33;3.03;;;9.70;99.90;;;;;;4950611;29;20240;-74
2022/09/27 01:45:58;;;;;;;5.15;2.95;;;9.60;99.90;;;;;;4935449;29;20177;-74
2022/09/27 01:48:34;;;;;;;3.90;2.75;;;9.70;99.90;;;;;;4942017;29;20739;-74
2022/09/27 01:51:21;;;;;;;7.47;2.70;;;9.70;99.90;;;;;;4939707;29;20189;-75
2022/09/27 01:53:51;;;;;;;2.35;2.15;;;9.70;99.90;;;;;;4935473;29;20193;-76
2022/09/27 01:56:44;;;;;;;3.25;2.15;;;9.70;99.90;;;;;;4935520;29;20288;-75
2022/09/27 01:59:28;;;;;;;3.80;2.20;;;9.70;99.90;;;;;;4937642;29;20205;-74
2022/09/27 02:01:58;;;;;;;4.03;2.67;;;9.70;99.90;;;;;;4935688;29;20290;-74
2022/09/27 02:04:28;;;;;;;2.78;2.22;;;9.70;99.90;;;;;;4935118;29;20181;-74
2022/09/27 02:07:01;;;;;;;6.20;2.80;;;9.70;99.90;;;;;;4937932;29;20213;-74
2022/09/27 02:09:32;;;;;;;3.17;2.30;;;9.70;99.90;;;;;;4954718;29;20181;-75
2022/09/27 02:12:04;;;;;;;4.65;2.45;;;9.70;99.90;;;;;;4954560;29;20209;-74
2022/09/27 02:14:41;;;;;;;4.10;2.90;;;9.70;99.90;;;;;;4954218;29;20173;-75
2022/09/27 02:17:28;;;;;;;8.52;2.50;;;9.70;99.90;;;;;;4952352;29;20197;-75
2022/09/27 02:20:15;;;;;;;3.65;2.40;;;9.70;99.90;;;;;;4947383;29;20179;-74
2022/09/27 02:22:46;;;;;;;2.55;2.35;;;9.70;99.90;;;;;;4954624;29;20177;-74
2022/09/27 02:25:23;;;;;;;5.43;2.80;;;9.70;99.90;;;;;;4954401;29;20192;-74
2022/09/27 02:27:54;;;;;;;4.43;2.20;;;9.70;99.90;;;;;;4944000;29;20209;-75
2022/09/27 02:30:20;;;;;;;3.83;2.55;;;9.70;99.90;;;;;;4935249;29;20621;-75
2022/09/27 02:32:46;;;;;;;4.90;2.77;;;9.70;99.90;;;;;;4935360;29;20267;-75
2022/09/27 02:35:28;;;;;;;3.30;2.27;;;9.60;99.90;;;;;;4936442;29;20223;-74
2022/09/27 02:37:54;;;;;;;4.07;2.55;;;9.60;99.90;;;;;;4935476;29;20277;-75
2022/09/27 02:40:21;;;;;;;2.85;2.38;;;9.60;99.90;;;;;;4930784;29;20189;-75
2022/09/27 02:42:47;;;;;;;4.28;2.33;;;9.60;99.90;;;;;;4938638;29;20189;-75
2022/09/27 02:45:16;;;;;;;3.20;2.40;;;9.50;99.90;;;;;;4938317;29;20292;-74
2022/09/27 02:48:04;;;;;;;4.60;2.55;;;9.50;99.90;;;;;;4941388;29;20444;-74
2022/09/27 02:50:42;;;;;;;3.45;2.40;;;9.50;99.90;;;;;;4956697;29;20224;-75
2022/09/27 02:53:38;;;;;;;2.35;2.15;;;9.50;99.90;;;;;;4957739;29;20331;-74
2022/09/27 02:56:33;;;;;;;4.13;2.50;;;9.50;99.90;;;;;;4955884;29;20279;-74
2022/09/27 02:59:33;;;;;;;5.03;1.88;;;9.40;99.90;;;;;;4957632;29;20538;-74
2022/09/27 03:02:25;;;;;;;4.93;1.70;;;9.40;99.90;;;;;;4955950;29;20185;-74
2022/09/27 03:04:58;;;;;;;4.32;1.55;;;9.40;99.90;;;;;;4949272;29;20933;-74
2022/09/27 03:07:25;;;;;;;3.90;1.13;;;9.40;99.90;;;;;;4957475;29;20200;-74
2022/09/27 03:09:52;;;;;;;2.17;1.42;;;9.30;99.90;;;;;;4957454;29;20543;-74
2022/09/27 03:12:24;;;;;;;3.67;1.42;;;9.20;99.90;;;;;;4955802;29;20205;-74
2022/09/27 03:14:55;;;;;;;1.42;1.30;;;9.20;99.90;;;;;;4956992;29;20228;-75
2022/09/27 03:17:21;;;;;;;3.70;1.10;;;9.20;99.90;;;;;;4956256;29;20288;-74
2022/09/27 03:19:47;;;;;;;2.85;1.30;;;9.20;99.90;;;;;;4957205;29;20180;-74
2022/09/27 03:22:13;;;;;;;1.60;1.23;;;9.20;99.90;;;;;;4956587;29;20189;-74
2022/09/27 03:24:39;;;;;;;1.60;1.50;;;9.20;99.90;;;;;;4956894;29;20507;-75
2022/09/27 03:27:05;;;;;;;3.20;0.93;;;9.20;99.90;;;;;;4957104;29;20452;-74
2022/09/27 03:29:31;;;;;;;3.83;1.35;;;9.20;99.90;;;;;;4940141;29;20180;-75
2022/09/27 03:31:57;;;;;;;3.30;1.63;;;9.20;99.90;;;;;;4954560;29;20579;-74
2022/09/27 03:34:23;;;;;;;1.35;1.23;;;9.20;99.90;;;;;;4937535;29;20512;-74
2022/09/27 03:36:49;;;;;;;3.33;1.63;;;9.20;99.90;;;;;;4937638;29;20778;-75
2022/09/27 03:39:14;;;;;;;2.93;1.60;;;9.20;99.90;;;;;;4936566;29;20591;-74
2022/09/27 03:41:40;;;;;;;3.77;1.93;;;9.20;99.90;;;;;;4937846;29;20429;-74
2022/09/27 03:44:07;;;;;;;3.10;1.93;;;9.20;99.90;;;;;;4954462;29;20189;-74
2022/09/27 03:46:33;;;;;;;1.98;1.83;;;9.20;99.90;;;;;;4956479;28;20197;-75
2022/09/27 03:48:59;;;;;;;8.63;2.53;;;9.20;99.90;;;;;;4956559;29;20708;-75
2022/09/27 03:51:24;;;;;;;1.70;1.60;;;9.20;99.90;;;;;;4956629;29;20421;-75
2022/09/27 03:53:50;;;;;;;2.57;2.37;;;9.10;99.90;;;;;;4941208;29;20726;-74
2022/09/27 03:56:16;;;;;;;2.60;1.90;;;9.00;99.90;;;;;;4935868;29;20194;-75
2022/09/27 03:58:41;;;;;;;5.03;2.23;;;9.00;99.90;;;;;;4937294;29;20185;-75
2022/09/27 04:01:08;;;;;;;2.97;1.90;;;9.00;99.90;;;;;;4937244;29;20508;-75
2022/09/27 04:03:35;;;;;;;2.22;2.00;;;8.90;99.90;;;;;;4949496;29;20536;-75
2022/09/27 04:06:01;;;;;;;14.30;4.10;;;8.90;99.90;;;;;;4935652;29;20226;-75
2022/09/27 04:08:28;;;;;;;3.95;2.60;;;8.90;99.90;;;;;;4918226;29;20549;-75
2022/09/27 04:10:54;;;;;;;5.30;3.47;;;9.00;99.90;;;;;;4918111;29;20182;-75
2022/09/27 04:13:20;;;;;;;6.03;3.40;;;9.00;99.90;;;;;;4938776;29;20201;-75
2022/09/27 04:15:46;;;;;;;4.10;3.70;;;9.10;99.90;;;;;;4954495;29;20929;-74
2022/09/27 04:18:11;;;;;;;3.50;3.10;;;9.00;99.90;;;;;;4955252;29;20181;-74
2022/09/27 04:20:37;;;;;;;4.70;3.83;;;9.00;99.90;;;;;;4956366;29;20276;-75
2022/09/27 04:23:03;;;;;;;8.13;3.50;;;9.10;99.90;;;;;;4951025;29;20181;-75
2022/09/27 04:25:28;;;;;;;6.20;3.80;;;9.00;99.90;;;;;;4941083;29;20605;-75
2022/09/27 04:27:54;;;;;;;3.70;3.40;;;9.00;99.90;;;;;;4936884;29;20287;-75
2022/09/27 04:30:21;;;;;;;5.43;3.20;;;8.90;99.90;;;;;;4936930;29;20272;-75
2022/09/27 04:32:47;;;;;;;5.50;3.25;;;8.90;99.90;;;;;;4941127;29;20239;-75
2022/09/27 04:37:59;;;;;;;5.18;2.60;;;8.80;99.90;;;;;;4956135;29;20439;-76
2022/09/27 04:40:24;;;;;;;3.85;2.83;;;8.80;99.90;;;;;;4955700;29;20176;-75
2022/09/27 04:42:51;;;;;;;4.97;2.73;;;8.80;99.90;;;;;;4946857;29;20193;-75
2022/09/27 04:45:17;;;;;;;3.95;2.90;;;8.80;99.90;;;;;;4920281;29;20190;-75
2022/09/27 04:47:44;;;;;;;2.92;2.33;;;8.80;99.90;;;;;;4916244;29;20683;-75
2022/09/27 04:50:11;;;;;;;6.25;2.50;;;8.80;99.90;;;;;;4917604;29;20189;-75
2022/09/27 04:52:37;;;;;;;4.63;2.70;;;8.80;99.90;;;;;;4918951;29;20217;-75
2022/09/27 04:55:03;;;;;;;2.30;2.03;;;8.80;99.90;;;;;;4935983;29;20212;-75
2022/09/27 04:57:29;;;;;;;4.18;2.58;;;8.70;99.90;;;;;;4950327;28;20224;-74
2022/09/27 04:59:54;;;;;;;4.90;2.87;;;8.70;99.90;;;;;;4936281;29;20190;-75
2022/09/27 05:02:20;;;;;;;3.00;1.90;;;8.70;99.90;;;;;;4935356;29;20584;-76
2022/09/27 05:04:45;;;;;;;2.60;2.40;;;8.70;99.90;;;;;;4935866;29;20224;-75
2022/09/27 05:07:11;;;;;;;3.40;1.90;;;8.70;99.90;;;;;;4936156;29;20216;-76
2022/09/27 05:09:36;;;;;;;5.13;2.83;;;8.70;99.90;;;;;;4936025;29;20622;-75
2022/09/27 05:12:04;;;;;;;4.30;2.27;;;8.60;99.90;;;;;;4935631;29;20219;-75
2022/09/27 05:14:29;;;;;;;3.65;2.55;;;8.60;99.90;;;;;;4935816;29;20184;-75
2022/09/27 05:16:55;;;;;;;2.57;2.13;;;8.60;99.90;;;;;;4935889;29;20206;-76
2022/09/27 05:19:21;;;;;;;6.37;2.10;;;8.60;99.90;;;;;;4936100;29;20647;-75
2022/09/27 05:21:46;;;;;;;5.13;1.87;;;8.60;99.90;;;;;;4936038;29;20200;-75
2022/09/27 05:24:12;;;;;;;4.63;2.43;;;8.60;99.90;;;;;;4935632;29;20186;-75
2022/09/27 05:26:37;;;;;;;6.30;2.47;;;8.60;99.90;;;;;;4934809;29;20209;-75
2022/09/27 05:29:03;;;;;;;2.13;1.93;;;8.70;99.90;;;;;;4936087;29;20189;-75
2022/09/27 05:31:29;;;;;;;6.80;2.03;;;8.70;99.90;;;;;;4935504;29;20209;-76
2022/09/27 05:33:54;;;;;;;9.20;1.77;;;8.70;99.90;;;;;;4935798;29;20616;-76
2022/09/27 05:36:22;;;;;;;2.50;1.50;;;8.70;99.90;;;;;;4950628;29;20206;-75
2022/09/27 05:38:48;;;;;;;2.20;1.88;;;8.60;99.90;;;;;;4936221;29;20177;-75
2022/09/27 05:41:14;;;;;;;2.90;1.70;;;8.60;99.90;;;;;;4935660;29;20196;-75
2022/09/27 05:43:40;;;;;;;6.38;1.58;;;8.50;99.90;;;;;;4934338;29;20450;-76
2022/09/27 05:46:06;;;;;;;5.60;1.60;;;8.50;99.90;;;;;;4935599;29;20213;-75
2022/09/27 05:48:32;;;;;;;6.27;2.00;;;8.50;99.90;;;;;;4934497;29;20201;-75
2022/09/27 05:50:58;;;;;;;5.60;2.30;;;8.50;99.90;;;;;;4935676;29;20476;-75
2022/09/27 05:53:24;;;;;;;4.10;1.33;;;8.60;99.90;;;;;;4935774;29;20458;-75
2022/09/27 05:55:49;;;;;;;5.10;2.20;;;8.60;99.90;;;;;;4935298;29;20501;-75
2022/09/27 05:58:15;;;;;;;5.50;1.73;;;8.70;99.90;;;;;;4935806;29;20282;-75
2022/09/27 06:00:42;;;;;;;3.30;1.67;;;8.70;99.90;;;;;;4935647;29;20568;-76
2022/09/27 06:03:11;;;;;;;9.43;2.67;;;8.80;99.90;;;;;;4935725;29;20261;-76
2022/09/27 06:05:38;;;;;;;8.30;1.80;;;8.80;99.90;;;;;;4918272;29;20186;-75
2022/09/27 06:08:07;;;;;;;4.47;2.05;;;8.90;99.90;;;;;;4936530;29;20674;-76
2022/09/27 06:10:33;;;;;;;7.85;1.92;;;8.90;99.90;;;;;;4939191;29;20529;-75
2022/09/27 06:13:11;;;;;;;3.28;1.83;;;9.00;99.90;;;;;;4939303;29;20227;-76
2022/09/27 06:15:40;;;;;;;2.97;1.52;;;9.00;99.90;;;;;;4939037;29;20579;-75
2022/09/27 06:18:09;;;;;;;3.72;1.73;;;9.00;99.90;;;;;;4939233;29;20201;-75
2022/09/27 06:20:35;;;;;;;4.25;1.20;;;9.00;99.90;;;;;;4932365;29;20662;-75
2022/09/27 06:23:08;;;;;;;4.07;1.58;;;9.00;99.90;;;;;;4939116;29;20639;-76
2022/09/27 06:25:34;;;;;;;5.15;2.00;;;9.00;99.90;;;;;;4939057;29;20265;-76
2022/09/27 06:28:01;;;;;;;2.75;1.60;;;9.10;99.90;;;;;;4922076;29;20236;-75
2022/09/27 06:30:27;;;;;;;5.88;1.67;;;9.10;99.90;;;;;;4939203;29;20228;-76
2022/09/27 06:33:00;;;;;;;3.47;1.20;;;9.20;99.90;;;;;;4938863;29;20216;-75
2022/09/27 06:35:27;;;;;;;3.45;1.23;;;9.10;99.90;;;;;;4938700;29;20188;-75
2022/09/27 06:37:53;;;;;;;2.67;1.50;;;9.10;99.90;;;;;;4935524;29;20831;-75
2022/09/27 06:40:19;;;;;;;2.90;1.60;;;9.10;99.90;;;;;;4935217;29;20196;-74
2022/09/27 06:42:46;;;;;;;5.55;1.75;;;9.20;99.90;;;;;;4935636;29;20199;-74
2022/09/27 06:45:11;;;;;;;2.20;1.38;;;9.10;99.90;;;;;;4951917;29;20190;-74
2022/09/27 06:47:37;;;;;;;0.97;0.87;;;9.10;99.90;;;;;;4937192;29;20747;-74
2022/09/27 06:50:05;;;;;;;3.33;0.93;;;9.10;99.90;;;;;;4954117;29;20276;-74
2022/09/27 06:52:35;;;;;;;4.97;1.80;;;9.10;99.90;;;;;;4943342;29;20472;-74
2022/09/27 06:55:03;;;;;;;5.50;2.13;;;9.10;99.90;;;;;;4953521;29;20197;-74
2022/09/27 07:00:25;;;;;;;2.50;1.23;;;9.10;99.90;;;;;;4946817;29;20224;-74
2022/09/27 07:02:59;;;;;;;2.08;0.93;;;9.20;99.90;;;;;;4938144;29;20626;-74
2022/09/27 07:05:29;;;;;;;2.35;1.00;;;9.30;99.90;;;;;;4937887;29;20188;-74
2022/09/27 07:07:56;;;;;;;2.25;1.10;;;9.40;99.90;;;;;;4938300;29;20229;-74
2022/09/27 07:10:23;;;;;;;1.52;0.90;;;9.50;99.90;;;;;;4946863;29;20200;-74
2022/09/27 07:12:49;;;;;;;1.40;0.95;;;9.50;99.90;;;;;;4957453;29;20205;-74
2022/09/27 07:15:15;;;;;;;5.60;1.67;;;9.50;99.90;;;;;;4957251;29;20177;-74
2022/09/27 07:17:41;;;;;;;2.47;1.30;;;9.60;99.90;;;;;;4933175;29;20561;-74
2022/09/27 07:20:07;;;;;;;4.75;1.23;;;9.60;99.90;;;;;;4956077;28;20543;-74
2022/09/27 07:22:40;;;;;;;5.43;1.23;;;9.60;99.90;;;;;;4957027;29;20185;-74
2022/09/27 07:25:06;;;;;;;3.00;0.90;;;9.50;99.90;;;;;;4956933;29;20420;-76
2022/09/27 07:34:17;;;;;;;2.38;1.45;;;9.50;99.90;;;;;;4937496;29;20200;-74
2022/09/27 07:36:42;;;;;;;2.28;1.23;;;9.60;99.90;;;;;;4937514;29;20193;-75
2022/09/27 07:39:08;;;;;;;3.30;1.30;;;9.60;99.90;;;;;;4938676;29;20272;-74
2022/09/27 07:41:34;;;;;;;4.35;1.33;;;9.70;99.90;;;;;;4937868;29;20182;-74
2022/09/27 07:44:00;;;;;;;4.93;1.20;;;9.60;99.90;;;;;;4935950;29;20194;-74
2022/09/27 07:46:26;;;;;;;1.55;0.88;;;9.70;99.90;;;;;;4936398;29;20202;-74
2022/09/27 07:48:52;;;;;;;4.73;1.00;;;9.80;99.90;;;;;;4946901;28;20252;-75
2022/09/27 07:51:17;;;;;;;1.67;0.80;;;9.90;99.90;;;;;;4964080;28;20535;-74
2022/09/27 07:53:43;;;;;;;1.80;1.10;;;9.90;99.90;;;;;;4956834;29;20279;-74
2022/09/27 07:56:09;;;;;;;2.40;1.00;;;9.90;99.90;;;;;;4956329;28;20203;-75
2022/09/27 07:58:34;;;;;;;4.60;0.90;;;9.90;99.90;;;;;;4956669;28;20713;-74
2022/09/27 08:01:01;;;;;;;1.37;1.03;;;9.90;99.90;;;;;;4956387;28;20264;-74
2022/09/27 08:03:27;;;;;;;6.18;0.90;;;9.90;99.90;;;;;;4956433;28;20236;-74
2022/09/27 08:05:52;;;;;;;2.13;1.13;;;9.90;99.90;;;;;;4956081;28;20189;-72
2022/09/27 08:08:18;;;;;;;4.80;1.10;;;9.90;99.90;;;;;;4955288;28;20484;-74
2022/09/27 08:10:46;;;;;;;1.47;0.97;;;9.90;99.90;;;;;;4935998;29;20192;-75
2022/09/27 08:13:16;;;;;;;1.60;0.90;;;9.80;99.90;;;;;;4937104;29;20198;-75
2022/09/27 08:15:42;;;;;;;2.80;1.38;;;9.80;99.90;;;;;;4936984;29;20192;-74
2022/09/27 08:18:11;;;;;;;1.67;1.03;;;9.70;99.90;;;;;;4951439;29;20184;-74
2022/09/27 08:20:36;;;;;;;1.90;1.30;;;9.80;99.90;;;;;;4956069;28;20180;-74
2022/09/27 08:23:03;;;;;;;3.70;1.20;;;9.90;99.90;;;;;;4971089;28;20239;-74
2022/09/27 08:25:29;;;;;;;2.17;1.08;;;9.90;99.90;;;;;;4955853;28;20181;-74
2022/09/27 08:28:00;;;;;;;3.33;1.92;;;10.00;99.90;;;;;;4945497;29;20224;-72
2022/09/27 08:30:27;;;;;;;3.53;1.20;;;10.10;99.90;;;;;;4956067;29;20177;-72
2022/09/27 08:33:01;;;;;;;1.05;0.98;;;10.20;99.90;;;;;;4955112;28;20692;-74
2022/09/27 08:35:27;;;;;;;9.05;1.45;;;10.40;99.90;;;;;;4938273;29;20197;-74
2022/09/27 08:37:58;;;;;;;1.70;1.30;;;10.40;99.90;;;;;;4963087;28;20295;-74
2022/09/27 08:40:42;;;;;;;1.60;1.15;;;10.50;99.90;;;;;;4955868;29;20200;-74
2022/09/27 08:43:27;;;;;;;1.10;0.98;;;10.60;99.90;;;;;;4955851;28;20180;-74
2022/09/27 08:46:13;;;;;;;3.05;1.45;;;10.70;99.90;;;;;;4955224;28;20224;-74
2022/09/27 08:48:43;;;;;;;2.35;1.40;;;10.80;99.90;;;;;;4955574;29;20176;-73
2022/09/27 08:51:12;;;;;;;1.25;1.10;;;11.40;99.90;;;;;;4955428;28;20201;-74
2022/09/27 08:53:54;;;;;;;2.20;0.97;;;11.90;99.90;;;;;;4955383;29;20212;-73
2022/09/27 08:56:20;;;;;;;6.30;1.00;;;12.00;99.90;;;;;;4937389;29;20547;-74
2022/09/27 08:58:56;;;;;;;1.33;1.03;;;11.80;99.90;;;;;;4936283;29;20452;-73
2022/09/27 09:01:23;;;;;;;2.97;1.17;;;11.70;99.90;;;;;;4936232;29;20467;-74
2022/09/27 09:03:55;;;;;;;1.53;1.20;;;11.50;99.90;;;;;;4935806;29;20508;-74
2022/09/27 09:06:33;;;;;;;4.33;1.87;;;11.50;99.90;;;;;;4952989;29;20467;-74
2022/09/27 09:09:01;;;;;;;2.40;1.67;;;11.60;99.90;;;;;;4953653;29;20440;-73
2022/09/27 09:15:10;;;;;;;2.85;1.65;;;11.60;99.90;;;;;;4948251;29;20432;-73
2022/09/27 09:18:00;;;;;;;2.57;1.67;;;11.70;99.90;;;;;;4936094;29;20198;-73
2022/09/27 09:20:51;;;;;;;2.50;1.40;;;11.80;99.90;;;;;;4936291;29;20424;-74
2022/09/27 09:23:35;;;;;;;2.72;1.30;;;11.80;99.90;;;;;;4936095;29;20413;-74
2022/09/27 09:26:16;;;;;;;2.10;1.50;;;11.50;99.90;;;;;;4950927;29;20216;-75
2022/09/27 09:28:50;;;;;;;1.98;1.40;;;11.50;99.90;;;;;;4955374;29;20771;-73
2022/09/27 09:31:43;;;;;;;1.80;1.50;;;11.30;99.90;;;;;;4954996;29;20204;-74
2022/09/27 09:34:32;;;;;;;3.15;1.40;;;11.30;99.90;;;;;;4954627;29;20404;-73
2022/09/27 09:37:01;;;;;;;5.40;1.65;;;11.40;99.90;;;;;;4954937;29;20195;-74
2022/09/27 09:39:45;;;;;;;4.37;1.70;;;11.50;99.90;;;;;;4927554;29;20186;-73
2022/09/27 09:42:23;;;;;;;6.53;1.87;;;11.50;99.90;;;;;;4935969;29;20438;-74
2022/09/27 09:45:20;;;;;;;4.53;1.43;;;11.60;99.90;;;;;;4933365;29;20440;-74
2022/09/27 09:47:56;;;;;;;1.30;1.20;;;11.70;99.90;;;;;;4956400;29;20542;-73
2022/09/27 09:50:29;;;;;;;5.23;1.27;;;11.80;99.90;;;;;;4954989;29;20551;-73
2022/09/27 09:53:13;;;;;;;2.63;1.50;;;11.80;99.90;;;;;;4957208;29;20839;-73
2022/09/27 09:55:42;;;;;;;9.00;1.50;;;11.70;99.90;;;;;;4955908;29;20428;-74
2022/09/27 09:58:35;;;;;;;2.35;1.60;;;11.60;99.90;;;;;;4956566;29;21011;-74
2022/09/27 10:01:21;;;;;;;2.70;1.57;;;11.60;99.90;;;;;;4937851;29;20212;-74
2022/09/27 10:03:47;;;;;;;3.25;1.33;;;11.50;99.90;;;;;;4937229;29;20421;-74
2022/09/27 10:06:14;;;;;;;1.77;1.37;;;11.40;99.90;;;;;;4937841;29;20205;-73
2022/09/27 10:08:41;;;;;;;2.20;1.30;;;11.50;99.90;;;;;;4942673;29;20436;-74
2022/09/27 10:11:17;;;;;;;3.35;1.38;;;11.50;99.90;;;;;;4955972;29;20939;-74
2022/09/27 10:13:42;;;;;;;1.53;1.37;;;11.60;99.90;;;;;;4956591;29;20294;-74
2022/09/27 10:16:11;;;;;;;3.20;1.93;;;11.60;99.90;;;;;;4956691;29;20487;-74
2022/09/27 10:18:40;;;;;;;1.87;1.10;;;11.60;99.90;;;;;;4934651;29;20196;-74
2022/09/27 10:21:19;;;;;;;8.93;1.93;;;11.80;99.90;;;;;;4937705;29;20432;-73
2022/09/27 10:24:18;;;;;;;1.33;1.23;;;11.80;99.90;;;;;;4937269;29;20822;-73
2022/09/27 10:26:47;;;;;;;3.10;1.80;;;11.90;99.90;;;;;;4936715;29;20447;-74
2022/09/27 10:29:18;;;;;;;4.00;2.10;;;12.00;99.90;;;;;;4943583;29;20452;-73
2022/09/27 10:31:47;;;;;;;3.03;1.60;;;12.10;99.90;;;;;;4944055;29;20811;-73
2022/09/27 10:34:41;;;;;;;1.77;1.43;;;12.00;99.90;;;;;;4936590;29;20880;-73
2022/09/27 10:37:16;;;;;;;2.23;1.80;;;11.90;99.90;;;;;;4934854;29;20485;-72
2022/09/27 10:39:44;;;;;;;3.37;1.93;;;11.80;99.90;;;;;;4937753;29;20444;-73
2022/09/27 10:42:21;;;;;;;4.70;1.60;;;11.80;99.90;;;;;;4936489;29;20432;-73
2022/09/27 10:44:46;;;;;;;2.33;1.67;;;11.70;99.90;;;;;;4944824;29;20437;-72
2022/09/27 10:47:21;;;;;;;2.20;1.60;;;11.70;99.90;;;;;;4956121;29;20444;-72
2022/09/27 10:49:51;;;;;;;3.93;1.10;;;11.60;99.90;;;;;;4955639;29;20188;-72
2022/09/27 10:52:18;;;;;;;3.10;2.38;;;11.40;99.90;;;;;;4956079;29;20471;-73
2022/09/27 10:54:52;;;;;;;6.47;2.57;;;11.30;99.90;;;;;;4953538;28;20184;-72
2022/09/27 10:57:24;;;;;;;4.43;2.00;;;11.30;99.90;;;;;;4956331;29;20490;-73
2022/09/27 11:00:24;;;;;;;3.22;2.13;;;11.30;99.90;;;;;;4955404;29;20413;-73
2022/09/27 11:02:56;;;;;;;3.40;2.20;;;11.40;99.90;;;;;;4955165;29;20250;-72
2022/09/27 11:05:22;;;;;;;2.50;2.20;;;11.50;99.90;;;;;;4944536;29;20196;-73
2022/09/27 11:07:54;;;;;;;2.53;1.70;;;11.60;99.90;;;;;;4936770;29;20572;-74
2022/09/27 11:10:32;;;;;;;4.28;2.00;;;11.80;99.90;;;;;;4935990;29;20426;-73
2022/09/27 11:13:13;;;;;;;2.43;1.73;;;12.00;99.90;;;;;;4920634;29;20217;-73
2022/09/27 11:16:12;;;;;;;5.23;1.90;;;12.10;99.90;;;;;;4936380;29;20421;-73
2022/09/27 11:19:06;;;;;;;3.87;1.90;;;12.10;99.90;;;;;;4935998;29;20843;-73
2022/09/27 11:21:51;;;;;;;3.95;1.98;;;12.10;99.90;;;;;;4936394;29;20422;-74
2022/09/27 11:24:42;;;;;;;2.43;1.90;;;12.10;99.90;;;;;;4951333;29;20216;-72
2022/09/27 11:27:20;;;;;;;4.33;1.50;;;12.40;99.90;;;;;;4955732;29;20424;-73
2022/09/27 11:30:08;;;;;;;5.07;2.33;;;12.40;99.90;;;;;;4955026;29;20417;-74
2022/09/27 11:32:53;;;;;;;5.40;2.17;;;12.50;99.90;;;;;;4936090;29;20478;-74
2022/09/27 11:35:47;;;;;;;3.00;2.03;;;12.60;99.90;;;;;;4936181;29;20838;-75
2022/09/27 11:38:28;;;;;;;2.30;1.83;;;12.60;99.90;;;;;;4935861;29;20413;-73
2022/09/27 11:41:11;;;;;;;3.00;1.87;;;12.80;99.90;;;;;;4935461;29;20409;-75
2022/09/27 11:44:01;;;;;;;5.30;2.00;;;12.80;99.90;;;;;;4937640;29;20445;-74
2022/09/27 11:46:38;;;;;;;3.57;1.70;;;12.90;99.90;;;;;;4939420;29;20453;-74
2022/09/27 11:49:09;;;;;;;2.83;1.30;;;12.80;99.90;;;;;;4934608;29;20968;-75
2022/09/27 11:51:53;;;;;;;3.93;1.97;;;12.80;99.90;;;;;;4926709;29;20457;-74
2022/09/27 11:54:50;;;;;;;4.20;1.57;;;12.90;99.90;;;;;;4925806;29;20820;-73
2022/09/27 11:57:22;;;;;;;3.43;1.50;;;12.80;99.90;;;;;;4917021;29;20449;-74
2022/09/27 12:00:09;;;;;;;3.83;1.70;;;12.70;99.90;;;;;;4917022;29;20485;-74
2022/09/27 12:02:37;;;;;;;2.77;1.50;;;12.50;99.90;;;;;;4915924;29;20411;-74
2022/09/27 12:05:35;;;;;;;2.73;1.47;;;12.30;99.90;;;;;;4916493;29;20493;-73
2022/09/27 12:08:16;;;;;;;1.97;1.37;;;12.00;99.90;;;;;;4895627;29;20844;-74
2022/09/27 12:10:47;;;;;;;2.40;1.40;;;11.90;99.90;;;;;;4915652;29;20501;-73
2022/09/27 12:13:15;;;;;;;2.37;1.10;;;11.90;99.90;;;;;;4916603;29;20461;-73
2022/09/27 12:15:43;;;;;;;2.40;1.20;;;11.90;99.90;;;;;;4916135;29;20418;-74
2022/09/27 12:18:23;;;;;;;3.73;1.10;;;11.90;99.90;;;;;;4916010;29;20793;-73
2022/09/27 12:20:50;;;;;;;2.60;1.30;;;11.90;99.90;;;;;;4916225;29;20910;-73
2022/09/27 12:23:24;;;;;;;2.57;1.77;;;11.80;99.90;;;;;;4916495;29;20516;-73
2022/09/27 12:25:57;;;;;;;1.73;1.10;;;11.90;99.90;;;;;;4915393;29;20438;-73
2022/09/27 12:28:49;;;;;;;1.67;1.00;;;12.10;99.90;;;;;;4916459;29;20457;-74
2022/09/27 12:31:39;;;;;;;2.22;1.45;;;12.00;99.90;;;;;;4915776;29;21028;-73
2022/09/27 12:34:35;;;;;;;1.50;1.33;;;11.90;99.90;;;;;;4915735;29;20205;-73
2022/09/27 12:37:34;;;;;;;1.97;1.30;;;11.70;99.90;;;;;;4930414;29;20503;-73
2022/09/27 12:40:38;;;;;;;3.53;2.00;;;11.60;99.90;;;;;;4914620;29;20434;-73
2022/09/27 12:43:16;;;;;;;2.83;1.80;;;11.50;99.90;;;;;;4932895;29;20447;-73
2022/09/27 12:46:11;;;;;;;4.85;1.50;;;11.20;99.90;;;;;;4924856;29;20190;-74
2022/09/27 12:48:51;;;;;;;4.60;1.77;;;10.80;99.90;;;;;;4916817;29;20510;-73
2022/09/27 12:51:21;;;;;;;2.45;1.00;;;10.50;99.90;;;;;;4927694;29;20204;-74
2022/09/27 12:53:53;;;;;;;1.48;1.00;;;10.20;99.90;;;;;;4953044;29;20216;-73
2022/09/27 12:56:50;;;;;;;1.88;0.95;;;10.00;99.90;;;;;;4951363;29;20255;-74
2022/09/27 12:59:30;;;;;;;2.35;1.05;;;9.90;99.90;;;;;;4954307;29;20196;-73
2022/09/27 13:02:20;;;;;;;3.45;1.30;;;9.90;99.90;;;;;;4953258;29;20189;-73
2022/09/27 13:05:00;;;;;;;3.45;1.48;;;10.00;99.90;;;;;;4943267;29;20186;-73
2022/09/27 13:08:00;;;;;;;1.88;1.23;;;10.00;99.90;;;;;;4915810;29;20202;-73
2022/09/27 13:10:34;;;;;;;5.13;1.88;;;9.80;99.90;;;;;;4915319;29;20186;-74
2022/09/27 13:13:03;;;;;;;6.05;3.15;;;9.80;99.90;;;;;;4915490;29;20193;-74
2022/09/27 13:15:35;;;;;;;2.17;0.93;;;9.70;99.90;;;;;;4943043;29;20192;-75
2022/09/27 13:18:04;;;;;;;2.28;0.75;;;9.30;99.90;;;;;;4953082;28;20235;-74
2022/09/27 13:20:38;;;;;;;1.60;0.93;;;9.10;99.90;;;;;;4953903;29;20189;-74
2022/09/27 13:23:27;;;;;;;3.42;0.93;;;9.00;99.90;;;;;;4948478;29;20196;-74
2022/09/27 13:26:02;;;;;;;1.55;1.00;;;9.00;99.90;;;;;;4937167;29;20204;-74
2022/09/27 13:28:31;;;;;;;1.30;1.10;;;9.00;99.90;;;;;;4953557;29;20684;-74
2022/09/27 13:31:10;;;;;;;1.23;0.85;;;9.00;99.90;;;;;;4952956;29;20247;-74
2022/09/27 13:33:48;;;;;;;2.28;1.05;;;9.10;99.90;;;;;;4945230;29;20213;-74
2022/09/27 13:36:23;;;;;;;5.78;0.90;;;9.30;99.90;;;;;;4934097;29;20201;-74
2022/09/27 13:39:04;;;;;;;5.32;1.10;;;9.40;99.90;;;;;;4933782;29;20264;-74